الصفحة الرئيسية
METAR-TAF:

METAR-TAF

مطار :

Ponta Delgada, الأزور, البرتغال

دائرة عرض: 37-44N, خط طول: 025-42W, ارتفاع: 71 متر

مراقبة الطقس الحالي

تاريخ ووقت الإصدار 27 دقيقة قبل الساعة 03:00UTC
ريح 14 عقدة من الشرق/الجنوب الشرقي
درجة الحرارة 14°درجة مئوية
الرطوبة 72%
ضغط 1024 hPa
الرؤية 10 كم أو أكثر
غيوم قليلة على ارتفاع 2500 قدم
غيوم مفككة على ارتفاع 4000 قدم

METAR: LPPD 200300Z 12014KT 9999 FEW025 BKN040 14/09 Q1024

زمن: 02:27 (03:27 UTC)

توقعات

تاريخ ووقت الإصدار 4ساعات و 27 دقيقة قبل الساعة 23:00UTC
التوقعات صالحة من20 الساعة 00 UTC إلى 20 الساعة 24 UTC
ريح 8 عقدة من الشرق/الجنوب الشرقي
الرؤية 10 كم أو أكثر
غيوم متفرقة على ارتفاع 2000 قدم
مؤقت
من 20 الساعة 00 UTC إلى 20 الساعة 24 UTC
غيوم قليلة على ارتفاع 1800 قدم
غيوم مفككة على ارتفاع 4500 قدم
أصبح
من 20 الساعة 01 UTC إلى 20 الساعة 04 UTC
ريح 13 عقدة من الجنوب/الجنوب الشرقي

TAF: LPPD 192300Z 2000/2024 12008KT 9999 SCT020 TEMPO 2000/2024 FEW018 BKN045 BECMG 2001/2004 15013KT

أرصاد الطقس والتوقعات من أكثر من 4000 مطار (تقارير الطقس للمطار METAR والتنبؤ بالطقس بالمطارTAF).

المحطات المتاحة هي النقط الصفراء والحمراء على الخريطة.

حرك المؤشر فوق النقطة لمعرفة اسم المحطة.

ثم انقر لمعرفة أرصاد وتوقعات الطقس.

لتغيير الخارطة: اضغط على الأزرار الخضراء مع رمز الصليب الأسود للتكبير. على الزر الأخضر مع شرطة للتصغير، أو على الأسهم الخضراء للخرائط المجاورة.


METAR-TAF: